Time;durP1;ratioP1;P1;durP2;ratioP2;P2;SDS_P1;SDS_P2;PMS_P1;PMS_P2;Temp;Humidity;BMP_temperature;BMP_pressure;BME280_temperature;BME280_humidity;BME280_pressure;Samples;Min_cycle;Max_cycle;Signal;HPM_P1;HPM_P2
2023/08/28 00:02:01;;;;;;;;;;;;;;;23.25;51.35;95325.41;10483078;28;1924;-65
2023/08/28 00:07:02;;;;;;;;;;;;;;;23.26;51.40;95313.75;10478500;28;2187;-64
2023/08/28 00:12:02;;;;;;;;;;;;;;;23.26;51.33;95303.19;10493044;28;2217;-65
2023/08/28 00:17:04;;;;;;;;;;;;;;;23.28;51.43;95301.00;10487767;28;1983;-65
2023/08/28 00:22:05;;;;;;;;;;;;;;;23.30;51.18;95277.69;10491284;28;1962;-65
2023/08/28 00:27:05;;;;;;;;;;;;;;;23.32;51.45;95264.97;10494201;28;2904;-65
2023/08/28 00:32:05;;;;;;;;;;;;;;;23.36;51.31;95255.34;10489844;28;2051;-65
2023/08/28 00:37:05;;;;;;;;;;;;;;;23.36;51.35;95261.44;10488560;28;1975;-65
2023/08/28 00:42:06;;;;;;;;;;;;;;;23.38;51.27;95263.78;10481896;28;4432;-65
2023/08/28 00:47:06;;;;;;;;;;;;;;;23.38;51.37;95282.28;10498858;28;2102;-65
2023/08/28 00:52:06;;;;;;;;;;;;;;;23.39;51.30;95289.13;10483271;28;2240;-65
2023/08/28 00:57:07;;;;;;;;;;;;;;;23.38;51.14;95298.94;10493162;28;2018;-65
2023/08/28 01:02:07;;;;;;;;;;;;;;;23.38;50.98;95279.63;10489983;28;1997;-65
2023/08/28 01:07:13;;;;;;;;;;;;;;;23.40;51.06;95277.47;10500941;28;1975;-65
2023/08/28 01:12:20;;;;;;;;;;;;;;;23.37;51.06;95278.06;10496670;28;1898;-65
2023/08/28 01:17:20;;;;;;;;;;;;;;;23.39;51.08;95273.25;10482923;28;1856;-65
2023/08/28 01:22:21;;;;;;;;;;;;;;;23.40;51.01;95275.63;10472705;28;2289;-66
2023/08/28 01:27:22;;;;;;;;;;;;;;;23.40;51.00;95277.47;10472694;28;2020;-65
2023/08/28 01:32:22;;;;;;;;;;;;;;;23.40;51.01;95280.91;10487712;28;1914;-65
2023/08/28 01:37:22;;;;;;;;;;;;;;;23.41;50.68;95263.94;10487061;28;1892;-66
2023/08/28 01:42:22;;;;;;;;;;;;;;;23.40;51.00;95264.25;10477499;28;4583;-65
2023/08/28 01:47:23;;;;;;;;;;;;;;;23.40;50.64;95256.31;10493718;28;1971;-65
2023/08/28 01:52:23;;;;;;;;;;;;;;;23.39;50.83;95254.72;10490847;28;1991;-66
2023/08/28 01:57:23;;;;;;;;;;;;;;;23.38;50.65;95259.28;10492608;28;1919;-65
2023/08/28 02:02:23;;;;;;;;;;;;;;;23.33;50.85;95248.00;10490191;28;1994;-65
2023/08/28 02:07:24;;;;;;;;;;;;;;;23.32;50.54;95243.81;10493404;28;1912;-65
2023/08/28 02:12:24;;;;;;;;;;;;;;;23.26;50.56;95232.56;10500630;28;1917;-65
2023/08/28 02:17:24;;;;;;;;;;;;;;;23.20;50.17;95211.84;10496065;28;2388;-66
2023/08/28 02:22:24;;;;;;;;;;;;;;;23.18;50.12;95212.16;10497318;28;2131;-65
2023/08/28 02:27:25;;;;;;;;;;;;;;;23.17;50.11;95201.84;10501433;28;2170;-66
2023/08/28 02:32:26;;;;;;;;;;;;;;;23.13;50.20;95192.97;10491846;28;1921;-65
2023/08/28 02:37:26;;;;;;;;;;;;;;;23.05;49.62;95175.97;10496021;28;1859;-65
2023/08/28 02:42:26;;;;;;;;;;;;;;;22.97;49.45;95171.44;10479468;28;1989;-65
2023/08/28 02:47:26;;;;;;;;;;;;;;;22.98;49.70;95186.19;10487298;28;1821;-65
2023/08/28 02:52:27;;;;;;;;;;;;;;;23.00;49.87;95172.69;10508462;28;1867;-65
2023/08/28 02:57:27;;;;;;;;;;;;;;;22.98;49.55;95190.72;10500214;28;1942;-65
2023/08/28 03:02:27;;;;;;;;;;;;;;;23.00;49.72;95193.84;10499221;28;1963;-65
2023/08/28 03:07:27;;;;;;;;;;;;;;;22.99;49.66;95179.06;10494974;28;1923;-66
2023/08/28 03:12:28;;;;;;;;;;;;;;;22.99;49.67;95177.19;10494296;28;2495;-66
2023/08/28 03:17:28;;;;;;;;;;;;;;;23.02;49.69;95178.47;10495715;28;1932;-66
2023/08/28 03:22:28;;;;;;;;;;;;;;;23.03;49.97;95180.00;10492579;28;2007;-66
2023/08/28 03:27:28;;;;;;;;;;;;;;;23.05;49.87;95180.47;10493088;28;1922;-66
2023/08/28 03:32:29;;;;;;;;;;;;;;;23.05;49.89;95188.41;10487437;28;1923;-66
2023/08/28 03:37:29;;;;;;;;;;;;;;;23.05;50.03;95183.91;10477457;28;2045;-66
2023/08/28 03:42:29;;;;;;;;;;;;;;;23.03;49.67;95186.09;10483746;28;4484;-66
2023/08/28 03:47:29;;;;;;;;;;;;;;;22.99;49.88;95190.41;10497134;28;1894;-66
2023/08/28 03:52:30;;;;;;;;;;;;;;;22.94;49.52;95190.53;10493106;28;1789;-66
2023/08/28 03:57:30;;;;;;;;;;;;;;;22.89;49.52;95184.59;10487893;28;1972;-66
2023/08/28 04:02:30;;;;;;;;;;;;;;;22.90;49.57;95160.50;10497885;28;1963;-66
2023/08/28 04:07:31;;;;;;;;;;;;;;;22.90;49.61;95151.78;10495029;28;2409;-66
2023/08/28 04:12:32;;;;;;;;;;;;;;;22.88;49.60;95159.22;10485927;28;1983;-66
2023/08/28 04:17:32;;;;;;;;;;;;;;;22.84;49.84;95151.13;10490120;28;2062;-66
2023/08/28 04:22:32;;;;;;;;;;;;;;;22.88;49.88;95140.72;10486881;28;1972;-66
2023/08/28 04:27:32;;;;;;;;;;;;;;;22.89;49.60;95097.38;10485285;28;2038;-66
2023/08/28 04:32:33;;;;;;;;;;;;;;;22.85;49.97;95101.72;10491932;28;1828;-65
2023/08/28 04:37:34;;;;;;;;;;;;;;;22.80;49.63;95096.53;10485567;28;1865;-66
2023/08/28 04:42:34;;;;;;;;;;;;;;;22.74;49.52;95114.38;10484290;28;4453;-66
2023/08/28 04:47:34;;;;;;;;;;;;;;;22.74;49.57;95089.81;10478630;28;1937;-66
2023/08/28 04:52:34;;;;;;;;;;;;;;;22.71;49.78;95096.50;10483036;28;2104;-66
2023/08/28 04:57:35;;;;;;;;;;;;;;;22.73;49.72;95102.25;10479928;28;2064;-66
2023/08/28 05:02:35;;;;;;;;;;;;;;;22.74;50.03;95100.41;10472638;28;2019;-66
2023/08/28 05:07:35;;;;;;;;;;;;;;;22.73;49.86;95104.88;10485939;28;2711;-65
2023/08/28 05:12:35;;;;;;;;;;;;;;;22.68;49.91;95091.81;10492449;28;1932;-64
2023/08/28 05:17:36;;;;;;;;;;;;;;;22.63;49.81;95092.72;10473346;28;1884;-66
2023/08/28 05:22:36;;;;;;;;;;;;;;;22.63;50.02;95068.94;10489944;28;2022;-66
2023/08/28 05:27:36;;;;;;;;;;;;;;;22.58;49.79;95053.25;10466360;28;2018;-66
2023/08/28 05:32:36;;;;;;;;;;;;;;;22.59;49.89;95057.44;10465912;28;2276;-63
2023/08/28 05:37:37;;;;;;;;;;;;;;;22.52;49.53;95037.78;10492794;28;1846;-65
2023/08/28 05:42:37;;;;;;;;;;;;;;;22.48;49.54;95036.84;10489294;28;4543;-63
2023/08/28 05:47:37;;;;;;;;;;;;;;;22.45;49.46;95025.00;10488447;28;1955;-66
2023/08/28 05:52:38;;;;;;;;;;;;;;;22.45;50.02;95003.09;10490538;28;1959;-70
2023/08/28 05:57:38;;;;;;;;;;;;;;;22.44;50.63;94927.59;10489272;28;1995;-70
2023/08/28 06:02:39;;;;;;;;;;;;;;;22.43;50.40;94918.13;10490511;28;2322;-68
2023/08/28 06:07:39;;;;;;;;;;;;;;;22.55;50.32;94940.22;10475075;28;1974;-69
2023/08/28 06:12:40;;;;;;;;;;;;;;;22.62;50.48;94945.09;10488488;28;1830;-67
2023/08/28 06:17:40;;;;;;;;;;;;;;;22.70;50.84;94969.97;10467476;28;1879;-65
2023/08/28 06:22:41;;;;;;;;;;;;;;;22.76;50.49;94982.75;10485355;28;1927;-67
2023/08/28 06:27:41;;;;;;;;;;;;;;;22.83;50.72;94992.91;10493324;28;2080;-67
2023/08/28 06:32:41;;;;;;;;;;;;;;;22.85;50.65;94991.50;10485701;28;1856;-67
2023/08/28 06:37:42;;;;;;;;;;;;;;;22.90;50.67;95014.34;10472636;28;2104;-66
2023/08/28 06:42:42;;;;;;;;;;;;;;;22.92;50.79;95007.69;10484048;28;4584;-68
2023/08/28 06:47:42;;;;;;;;;;;;;;;22.94;50.65;95010.00;10492587;28;1948;-67
2023/08/28 06:52:43;;;;;;;;;;;;;;;22.96;50.66;94970.84;10483492;28;1926;-67
2023/08/28 06:57:43;;;;;;;;;;;;;;;22.96;50.73;94978.78;10478232;28;2367;-67
2023/08/28 07:02:43;;;;;;;;;;;;;;;22.93;50.37;94947.69;10486975;28;2039;-67
2023/08/28 07:07:43;;;;;;;;;;;;;;;22.94;50.63;94967.72;10484390;28;2003;-67
2023/08/28 07:12:47;;;;;;;;;;;;;;;22.96;50.66;94960.28;10483995;28;1962;-67
2023/08/28 07:17:47;;;;;;;;;;;;;;;23.02;50.50;94953.78;10478031;28;1971;-67
2023/08/28 07:22:47;;;;;;;;;;;;;;;23.05;50.69;94966.38;10467460;28;1999;-67
2023/08/28 07:27:48;;;;;;;;;;;;;;;23.02;50.88;94959.81;10482117;28;1999;-67
2023/08/28 07:32:48;;;;;;;;;;;;;;;23.04;50.70;94954.25;10460046;28;2273;-67
2023/08/28 07:37:49;;;;;;;;;;;;;;;23.03;50.56;94928.91;10464147;28;1928;-66
2023/08/28 07:42:49;;;;;;;;;;;;;;;23.07;50.56;94903.41;10482435;28;1906;-66
2023/08/28 07:47:50;;;;;;;;;;;;;;;23.27;50.45;94894.84;10482290;28;1868;-67
2023/08/28 07:52:50;;;;;;;;;;;;;;;23.42;50.25;94931.47;10481125;28;2600;-68
2023/08/28 07:57:50;;;;;;;;;;;;;;;23.59;50.13;94965.06;10479495;28;1991;-67
2023/08/28 08:02:51;;;;;;;;;;;;;;;23.72;49.72;94983.44;10476922;28;2029;-67
2023/08/28 08:07:51;;;;;;;;;;;;;;;23.84;49.56;94999.50;10459959;28;1980;-68
2023/08/28 08:12:52;;;;;;;;;;;;;;;23.97;49.49;95003.03;10480101;28;2039;-68
2023/08/28 08:17:52;;;;;;;;;;;;;;;24.06;49.50;95014.44;10481237;28;1915;-68
2023/08/28 08:22:52;;;;;;;;;;;;;;;24.12;49.34;95019.28;10464051;28;2037;-68
2023/08/28 08:27:52;;;;;;;;;;;;;;;24.20;48.98;95037.03;10480631;28;2059;-67
2023/08/28 08:32:53;;;;;;;;;;;;;;;24.25;48.99;95051.97;10471898;28;2020;-66
2023/08/28 08:37:53;;;;;;;;;;;;;;;24.31;48.71;95065.81;10480713;28;1938;-67
2023/08/28 08:42:53;;;;;;;;;;;;;;;24.36;48.74;95055.84;10478580;28;4528;-67
2023/08/28 08:47:54;;;;;;;;;;;;;;;24.38;48.73;95050.25;10480378;28;2031;-67
2023/08/28 08:52:58;;;;;;;;;;;;;;;24.41;48.48;95054.91;10460950;28;2485;-66
2023/08/28 08:57:59;;;;;;;;;;;;;;;24.45;48.31;95064.56;10479177;28;1919;-68
2023/08/28 09:02:59;;;;;;;;;;;;;;;24.47;48.55;95053.66;10458088;28;2002;-67
2023/08/28 09:08:00;;;;;;;;;;;;;;;24.49;48.67;95001.91;10473309;28;1985;-66
2023/08/28 09:13:00;;;;;;;;;;;;;;;24.50;48.50;94939.09;10468319;28;1940;-67
2023/08/28 09:18:00;;;;;;;;;;;;;;;24.52;48.57;94871.47;10461614;28;1994;-67
2023/08/28 09:23:01;;;;;;;;;;;;;;;24.54;48.46;94842.00;10483207;28;1914;-70
2023/08/28 09:28:01;;;;;;;;;;;;;;;24.55;48.55;94812.53;10487391;28;1824;-66
2023/08/28 09:33:04;;;;;;;;;;;;;;;24.58;48.55;94851.63;10480821;28;1874;-67
2023/08/28 09:38:04;;;;;;;;;;;;;;;24.62;48.65;94894.16;10488882;28;1848;-69
2023/08/28 09:43:14;;;;;;;;;;;;;;;24.62;48.33;94873.75;10479519;28;4535;-67
2023/08/28 09:48:16;;;;;;;;;;;;;;;24.63;48.43;94880.59;10477846;28;2003;-68
2023/08/28 09:53:28;;;;;;;;;;;;;;;24.66;48.25;94887.13;10503713;28;1808;-68
2023/08/28 09:58:28;;;;;;;;;;;;;;;24.68;48.61;94896.31;10478052;28;2068;-66
2023/08/28 10:03:29;;;;;;;;;;;;;;;24.58;48.51;94872.06;10477781;28;1969;-68
2023/08/28 10:08:31;;;;;;;;;;;;;;;24.51;48.83;94867.25;10489626;28;2020;-68
2023/08/28 10:13:31;;;;;;;;;;;;;;;24.45;48.67;94873.03;10461660;28;1816;-67
2023/08/28 10:18:34;;;;;;;;;;;;;;;24.39;48.93;94861.06;10480110;28;1836;-66
2023/08/28 10:23:34;;;;;;;;;;;;;;;24.32;49.32;94863.44;10479081;28;1971;-66
2023/08/28 10:28:35;;;;;;;;;;;;;;;24.24;49.39;94884.34;10481675;28;1895;-66
2023/08/28 10:33:36;;;;;;;;;;;;;;;24.16;49.71;94882.50;10478820;28;1835;-64
2023/08/28 10:38:36;;;;;;;;;;;;;;;24.13;49.85;94843.41;10475829;28;1906;-66
2023/08/28 10:43:36;;;;;;;;;;;;;;;24.10;50.29;94827.38;10484646;28;4445;-67
2023/08/28 10:48:37;;;;;;;;;;;;;;;24.07;50.35;94849.22;10484052;28;1950;-67
2023/08/28 10:53:38;;;;;;;;;;;;;;;24.01;50.16;94853.84;10462126;28;1840;-66
2023/08/28 10:58:38;;;;;;;;;;;;;;;23.99;50.38;94856.03;10485463;28;1876;-66
2023/08/28 11:03:51;;;;;;;;;;;;;;;23.96;50.45;94861.19;10458145;28;1967;-65
2023/08/28 11:08:54;;;;;;;;;;;;;;;23.94;50.43;94818.38;10479561;28;1832;-66
2023/08/28 11:14:01;;;;;;;;;;;;;;;23.91;50.67;94826.94;10478691;28;1871;-66
2023/08/28 11:19:02;;;;;;;;;;;;;;;23.88;50.56;94812.50;10464705;28;1896;-66
2023/08/28 11:24:02;;;;;;;;;;;;;;;23.87;50.53;94810.94;10480565;28;1975;-66
2023/08/28 11:29:05;;;;;;;;;;;;;;;23.85;50.50;94807.81;10483602;28;1832;-66
2023/08/28 11:34:05;;;;;;;;;;;;;;;23.85;50.82;94826.34;10491765;28;1599;-66
2023/08/28 11:39:08;;;;;;;;;;;;;;;23.83;50.90;94809.22;10467247;28;2653;-66
2023/08/28 11:44:10;;;;;;;;;;;;;;;23.82;50.93;94805.03;10482604;28;4487;-64
2023/08/28 11:49:11;;;;;;;;;;;;;;;23.82;51.03;94792.56;10479039;28;2011;-66
2023/08/28 11:54:11;;;;;;;;;;;;;;;23.82;50.84;94797.09;10479299;28;1554;-66
2023/08/28 11:59:11;;;;;;;;;;;;;;;23.82;50.91;94773.28;10465760;28;1715;-66
2023/08/28 12:04:12;;;;;;;;;;;;;;;23.84;50.97;94781.69;10486434;28;1914;-66
2023/08/28 12:09:12;;;;;;;;;;;;;;;23.81;51.14;94800.81;10474912;28;1577;-65
2023/08/28 12:14:16;;;;;;;;;;;;;;;23.79;50.86;94782.63;10481882;28;1539;-65
2023/08/28 12:19:16;;;;;;;;;;;;;;;23.78;51.14;94786.34;10484186;28;1521;-65
2023/08/28 12:24:17;;;;;;;;;;;;;;;23.78;51.00;94780.31;10493376;28;1914;-65
2023/08/28 12:29:17;;;;;;;;;;;;;;;23.77;50.90;94771.59;10484004;28;1584;-66
2023/08/28 12:34:18;;;;;;;;;;;;;;;23.77;51.15;94782.16;10462729;28;2224;-66
2023/08/28 12:39:21;;;;;;;;;;;;;;;23.77;50.88;94779.53;10481880;28;1663;-66
2023/08/28 12:44:22;;;;;;;;;;;;;;;23.76;50.94;94761.31;10483233;28;4386;-66
2023/08/28 12:49:22;;;;;;;;;;;;;;;23.75;50.90;94767.69;10491292;28;1537;-66
2023/08/28 12:54:22;;;;;;;;;;;;;;;23.76;50.98;94762.06;10482534;28;1491;-67
2023/08/28 12:59:23;;;;;;;;;;;;;;;23.76;50.96;94772.66;10488121;28;1473;-66
2023/08/28 13:04:23;;;;;;;;;;;;;;;23.77;50.85;94778.75;10486967;28;1914;-66
2023/08/28 13:09:25;;;;;;;;;;;;;;;23.76;50.70;94799.13;10492446;28;1538;-65
2023/08/28 13:14:27;;;;;;;;;;;;;;;23.76;51.01;94801.00;10491669;28;1616;-64
2023/08/28 13:19:27;;;;;;;;;;;;;;;23.76;50.87;94761.31;10488893;28;1513;-66
2023/08/28 13:24:27;;;;;;;;;;;;;;;23.76;50.95;94753.38;10481672;28;1979;-65
2023/08/28 13:29:27;;;;;;;;;;;;;;;23.76;50.89;94759.44;10485715;28;1497;-65
2023/08/28 13:34:28;;;;;;;;;;;;;;;23.76;51.02;94764.72;10473949;28;2590;-66
2023/08/28 13:39:28;;;;;;;;;;;;;;;23.75;50.66;94739.38;10483292;28;1746;-65
2023/08/28 13:44:28;;;;;;;;;;;;;;;23.75;51.01;94722.72;10458816;28;4462;-66
2023/08/28 13:49:28;;;;;;;;;;;;;;;23.76;50.97;94734.88;10490483;28;1395;-66
2023/08/28 13:54:29;;;;;;;;;;;;;;;23.75;50.62;94730.66;10476666;28;1591;-67
2023/08/28 13:59:29;;;;;;;;;;;;;;;23.74;50.94;94719.28;10489836;28;1523;-66
2023/08/28 14:04:32;;;;;;;;;;;;;;;23.78;50.93;94745.91;10471776;28;1973;-66
2023/08/28 14:09:33;;;;;;;;;;;;;;;23.78;50.75;94762.53;10503418;28;1552;-68
2023/08/28 14:14:33;;;;;;;;;;;;;;;23.78;50.86;94761.78;10492678;28;1553;-66
2023/08/28 14:19:33;;;;;;;;;;;;;;;23.77;50.88;94755.72;10461009;28;1516;-67
2023/08/28 14:24:37;;;;;;;;;;;;;;;23.78;50.74;94765.19;10488507;28;1906;-68
2023/08/28 14:29:37;;;;;;;;;;;;;;;23.82;50.85;94783.88;10490025;28;2293;-68
2023/08/28 14:34:38;;;;;;;;;;;;;;;23.80;50.79;94772.81;10494459;28;1598;-69
2023/08/28 14:39:38;;;;;;;;;;;;;;;23.80;50.75;94770.19;10487118;28;1729;-67
2023/08/28 14:44:38;;;;;;;;;;;;;;;23.79;51.00;94764.09;10490554;28;4425;-68
2023/08/28 14:49:38;;;;;;;;;;;;;;;23.80;51.01;94751.66;10493831;28;1497;-69
2023/08/28 14:54:39;;;;;;;;;;;;;;;23.79;50.86;94735.00;10488164;28;1604;-69
2023/08/28 14:59:39;;;;;;;;;;;;;;;23.81;50.84;94721.44;10482852;28;1562;-70
2023/08/28 15:04:39;;;;;;;;;;;;;;;23.82;51.00;94718.47;10474760;28;1910;-67
2023/08/28 15:09:42;;;;;;;;;;;;;;;23.85;50.82;94722.34;10493707;28;1422;-65
2023/08/28 15:14:42;;;;;;;;;;;;;;;23.84;50.95;94716.31;10500666;28;1461;-66
2023/08/28 15:19:42;;;;;;;;;;;;;;;23.81;50.88;94724.88;10483837;28;1515;-68
2023/08/28 15:24:43;;;;;;;;;;;;;;;23.79;50.61;94716.47;10488435;28;2239;-65
2023/08/28 15:29:44;;;;;;;;;;;;;;;23.74;50.36;94711.34;10485734;28;1791;-65
2023/08/28 15:34:44;;;;;;;;;;;;;;;23.67;50.26;94721.66;10488408;28;1479;-65
2023/08/28 15:39:44;;;;;;;;;;;;;;;23.64;50.32;94705.66;10494997;28;1454;-66
2023/08/28 15:44:44;;;;;;;;;;;;;;;23.64;50.25;94692.44;10489583;28;1898;-66
2023/08/28 15:49:45;;;;;;;;;;;;;;;23.65;50.27;94707.19;10490523;28;1442;-66
2023/08/28 15:54:45;;;;;;;;;;;;;;;23.64;49.96;94703.75;10494729;28;1532;-66
2023/08/28 15:59:46;;;;;;;;;;;;;;;23.62;49.98;94699.91;10496998;28;1744;-66
2023/08/28 16:04:47;;;;;;;;;;;;;;;23.64;49.76;94714.34;10472175;28;1906;-66
2023/08/28 16:09:47;;;;;;;;;;;;;;;23.62;49.75;94719.19;10489984;28;1485;-64
2023/08/28 16:14:48;;;;;;;;;;;;;;;23.63;49.58;94733.19;10494297;28;1478;-66
2023/08/28 16:19:48;;;;;;;;;;;;;;;23.62;49.69;94719.19;10491375;28;1610;-65
2023/08/28 16:24:48;;;;;;;;;;;;;;;23.63;49.75;94712.03;10481815;28;1914;-66
2023/08/28 16:29:48;;;;;;;;;;;;;;;23.64;49.69;94677.31;10490233;28;1816;-65
2023/08/28 16:34:49;;;;;;;;;;;;;;;23.65;49.69;94699.25;10485255;28;1840;-66
2023/08/28 16:39:49;;;;;;;;;;;;;;;23.68;49.32;94696.00;10485206;28;1908;-66
2023/08/28 16:44:49;;;;;;;;;;;;;;;23.67;49.58;94695.19;10476630;28;4335;-67
2023/08/28 16:49:49;;;;;;;;;;;;;;;23.65;49.44;94712.47;10476198;28;1808;-66
2023/08/28 16:54:50;;;;;;;;;;;;;;;23.64;49.50;94695.06;10487400;28;1891;-66
2023/08/28 16:59:50;;;;;;;;;;;;;;;23.63;49.08;94714.66;10481582;28;1895;-66
2023/08/28 17:04:50;;;;;;;;;;;;;;;23.62;49.26;94729.75;10482860;28;1914;-66
2023/08/28 17:09:51;;;;;;;;;;;;;;;23.62;49.27;94739.59;10486353;28;1856;-66
2023/08/28 17:14:51;;;;;;;;;;;;;;;23.60;49.11;94747.03;10478218;28;2384;-67
2023/08/28 17:19:51;;;;;;;;;;;;;;;23.59;49.05;94745.50;10464967;28;1852;-65
2023/08/28 17:24:51;;;;;;;;;;;;;;;23.57;49.17;94735.25;10481414;28;1938;-65
2023/08/28 17:29:52;;;;;;;;;;;;;;;23.58;49.39;94733.34;10488733;28;1832;-66
2023/08/28 17:34:54;;;;;;;;;;;;;;;23.58;49.61;94741.28;10492413;28;1773;-65
2023/08/28 17:39:54;;;;;;;;;;;;;;;23.58;49.82;94749.22;10487417;28;1927;-65
2023/08/28 17:44:55;;;;;;;;;;;;;;;23.58;49.67;94750.00;10480851;28;4548;-65
2023/08/28 17:49:56;;;;;;;;;;;;;;;23.57;49.87;94735.25;10498104;28;1844;-65
2023/08/28 17:54:57;;;;;;;;;;;;;;;23.57;49.82;94743.19;10476463;28;1964;-65
2023/08/28 17:59:58;;;;;;;;;;;;;;;23.56;49.89;94741.59;10452975;28;1837;-66
2023/08/28 18:05:01;;;;;;;;;;;;;;;23.56;49.90;94725.75;10466092;28;1916;-65
2023/08/28 18:10:03;;;;;;;;;;;;;;;23.54;49.98;94733.22;10450997;28;1991;-65
2023/08/28 18:15:03;;;;;;;;;;;;;;;23.55;49.93;94749.88;10478855;28;2406;-64
2023/08/28 18:20:07;;;;;;;;;;;;;;;23.54;49.88;94754.38;10497868;28;1769;-65
2023/08/28 18:25:11;;;;;;;;;;;;;;;23.53;49.98;94752.84;10477005;28;1925;-65
2023/08/28 18:30:15;;;;;;;;;;;;;;;23.54;50.16;94754.38;10493889;28;1817;-65
2023/08/28 18:35:15;;;;;;;;;;;;;;;23.52;50.00;94727.47;10484523;28;2075;-64
2023/08/28 18:40:16;;;;;;;;;;;;;;;23.53;50.17;94736.19;10461046;28;1878;-64
2023/08/28 18:45:17;;;;;;;;;;;;;;;23.51;50.12;94736.50;10460060;28;1969;-65
2023/08/28 18:50:20;;;;;;;;;;;;;;;23.51;50.19;94755.03;10475588;28;1872;-65
2023/08/28 18:55:24;;;;;;;;;;;;;;;23.51;50.20;94773.53;10488018;28;2015;-66
2023/08/28 19:00:27;;;;;;;;;;;;;;;23.51;50.21;94792.06;10474855;28;1907;-66
2023/08/28 19:05:34;;;;;;;;;;;;;;;23.51;50.19;94792.06;10473768;28;1904;-66
2023/08/28 19:10:36;;;;;;;;;;;;;;;23.51;50.09;94781.47;10472660;28;2172;-66
2023/08/28 19:15:37;;;;;;;;;;;;;;;23.52;50.28;94769.78;10480118;28;1943;-65
2023/08/28 19:20:38;;;;;;;;;;;;;;;23.55;50.27;94777.09;10486959;28;1938;-66
2023/08/28 19:25:38;;;;;;;;;;;;;;;23.59;50.18;94783.31;10471700;28;1899;-66
2023/08/28 19:30:48;;;;;;;;;;;;;;;23.61;50.03;94780.34;10467748;28;1485;-68
2023/08/28 19:36:09;;;;;;;;;;;;;;;23.63;50.08;94781.59;10482930;28;1559;-64
2023/08/28 19:41:13;;;;;;;;;;;;;;;23.73;49.57;94793.69;10492532;28;4456;-66
2023/08/28 19:46:13;;;;;;;;;;;;;;;23.72;49.74;94798.19;10473630;28;1949;-65
2023/08/28 19:51:22;;;;;;;;;;;;;;;23.77;49.90;94794.63;10491858;28;1473;-66
2023/08/28 19:56:25;;;;;;;;;;;;;;;23.82;49.81;94797.84;10473999;28;1477;-66
2023/08/28 20:01:29;;;;;;;;;;;;;;;23.87;49.73;94816.22;10473273;28;1457;-66
2023/08/28 20:06:39;;;;;;;;;;;;;;;23.91;49.54;94819.00;10472384;28;2496;-64
2023/08/28 20:11:43;;;;;;;;;;;;;;;23.94;49.82;94821.81;10481322;28;1464;-66
2023/08/28 20:16:44;;;;;;;;;;;;;;;23.94;49.83;94819.19;10475107;28;1524;-64
2023/08/28 20:21:47;;;;;;;;;;;;;;;23.95;49.62;94807.47;10477369;28;1466;-64
2023/08/28 20:26:50;;;;;;;;;;;;;;;23.96;49.64;94811.69;10477817;28;1894;-66
2023/08/28 20:31:54;;;;;;;;;;;;;;;24.02;49.43;94815.72;10471684;28;1414;-66
2023/08/28 20:36:54;;;;;;;;;;;;;;;24.01;49.52;94814.16;10474555;28;1737;-67
2023/08/28 20:41:55;;;;;;;;;;;;;;;23.99;49.41;94786.44;10450364;28;1976;-63
2023/08/28 20:46:56;;;;;;;;;;;;;;;24.03;49.44;94782.88;10476981;28;1917;-63
2023/08/28 20:51:57;;;;;;;;;;;;;;;24.04;49.35;94788.94;10487525;28;1808;-65
2023/08/28 20:56:58;;;;;;;;;;;;;;;24.05;49.48;94803.75;10456526;28;1866;-65
2023/08/28 21:01:59;;;;;;;;;;;;;;;24.04;49.35;94805.63;10455704;28;2321;-65
2023/08/28 21:06:59;;;;;;;;;;;;;;;24.00;49.46;94802.03;10490190;28;1917;-66
2023/08/28 21:11:59;;;;;;;;;;;;;;;24.02;49.31;94809.63;10453934;28;1861;-67
2023/08/28 21:17:00;;;;;;;;;;;;;;;24.05;49.27;94801.09;10488061;28;1908;-65
2023/08/28 21:22:02;;;;;;;;;;;;;;;24.19;49.03;94809.59;10488893;28;1802;-66
2023/08/28 21:27:03;;;;;;;;;;;;;;;24.23;48.74;94805.22;10474566;28;1940;-64
2023/08/28 21:32:06;;;;;;;;;;;;;;;24.30;48.65;94791.50;10490645;28;1928;-67
2023/08/28 21:37:07;;;;;;;;;;;;;;;24.34;48.33;94781.81;10468666;28;1916;-67
2023/08/28 21:42:08;;;;;;;;;;;;;;;24.39;48.21;94771.78;10487226;28;4592;-65
2023/08/28 21:47:09;;;;;;;;;;;;;;;24.28;48.49;94777.78;10486807;28;1965;-64
2023/08/28 21:52:12;;;;;;;;;;;;;;;24.23;48.62;94787.44;10473954;28;1868;-63
2023/08/28 21:57:12;;;;;;;;;;;;;;;24.19;48.40;94770.63;10472062;28;2338;-64
2023/08/28 22:02:13;;;;;;;;;;;;;;;24.13;48.50;94761.31;10457048;28;1896;-65
2023/08/28 22:07:14;;;;;;;;;;;;;;;24.04;48.85;94768.56;10495581;28;1972;-63
2023/08/28 22:12:14;;;;;;;;;;;;;;;23.99;49.29;94762.59;10460585;28;1866;-65
2023/08/28 22:17:15;;;;;;;;;;;;;;;23.96;49.51;94771.19;10452186;28;1931;-63
2023/08/28 22:22:16;;;;;;;;;;;;;;;23.91;49.57;94769.50;10469360;28;1855;-65
2023/08/28 22:27:16;;;;;;;;;;;;;;;23.86;49.83;94772.34;10452584;28;1948;-64
2023/08/28 22:32:17;;;;;;;;;;;;;;;23.83;50.05;94761.59;10471494;28;1881;-64
2023/08/28 22:37:17;;;;;;;;;;;;;;;23.79;50.33;94756.16;10472171;28;1991;-65
2023/08/28 22:42:17;;;;;;;;;;;;;;;23.77;50.24;94750.41;10487034;28;4468;-65
2023/08/28 22:47:18;;;;;;;;;;;;;;;23.74;50.40;94745.75;10503199;28;1957;-66
2023/08/28 22:52:18;;;;;;;;;;;;;;;23.72;50.47;94744.53;10506217;28;2384;-65
2023/08/28 22:57:19;;;;;;;;;;;;;;;23.70;50.63;94763.34;10502798;28;1975;-65
2023/08/28 23:02:19;;;;;;;;;;;;;;;23.69;50.74;94769.75;10505111;28;1855;-65
2023/08/28 23:07:19;;;;;;;;;;;;;;;23.66;50.83;94762.44;10498692;28;2005;-65
2023/08/28 23:12:19;;;;;;;;;;;;;;;23.65;50.59;94754.81;10497803;28;1950;-65
2023/08/28 23:17:20;;;;;;;;;;;;;;;23.63;50.76;94749.06;10484610;28;1910;-65
2023/08/28 23:22:20;;;;;;;;;;;;;;;23.61;50.84;94738.81;10485892;28;1998;-65
2023/08/28 23:27:21;;;;;;;;;;;;;;;23.60;50.83;94745.16;10491898;28;1856;-65
2023/08/28 23:32:21;;;;;;;;;;;;;;;23.60;50.86;94739.09;10498477;28;1999;-66
2023/08/28 23:37:21;;;;;;;;;;;;;;;23.58;50.61;94751.88;10483020;28;1902;-65
2023/08/28 23:42:21;;;;;;;;;;;;;;;23.56;50.69;94746.91;10485444;28;4882;-65
2023/08/28 23:47:22;;;;;;;;;;;;;;;23.55;50.51;94749.88;10496254;28;2143;-65
2023/08/28 23:52:22;;;;;;;;;;;;;;;23.54;50.71;94754.38;10487916;28;2501;-64
2023/08/28 23:57:22;;;;;;;;;;;;;;;23.53;50.51;94750.19;10487714;28;1842;-64
